Time;durP1;ratioP1;P1;durP2;ratioP2;P2;SDS_P1;SDS_P2;PMS_P1;PMS_P2;Temp;Humidity;BMP_temperature;BMP_pressure;BME280_temperature;BME280_humidity;BME280_pressure;Samples;Min_cycle;Max_cycle;Signal;HPM_P1;HPM_P2
2022/05/12 00:01:58;;;;;;;13.23;3.63;;;;;;;;;;4998420;28;20072;-71
2022/05/12 00:04:23;;;;;;;12.15;3.28;;;;;;;;;;4996559;28;20037;-70
2022/05/12 00:06:48;;;;;;;7.10;2.70;;;;;;;;;;5001845;28;20030;-72
2022/05/12 00:09:14;;;;;;;11.32;3.20;;;;;;;;;;5002350;28;20490;-71
2022/05/12 00:11:39;;;;;;;8.98;2.92;;;;;;;;;;5003064;28;20025;-71
2022/05/12 00:14:05;;;;;;;10.70;3.33;;;;;;;;;;4996899;28;20413;-71
2022/05/12 00:16:30;;;;;;;9.87;2.80;;;;;;;;;;4995425;28;20025;-71
2022/05/12 00:18:55;;;;;;;10.33;2.50;;;;;;;;;;4995216;28;20560;-71
2022/05/12 00:21:20;;;;;;;8.80;2.83;;;;;;;;;;4993503;28;20705;-71
2022/05/12 00:23:56;;;;;;;10.65;2.70;;;;;;;;;;4995852;28;20080;-70
2022/05/12 00:26:21;;;;;;;11.18;2.70;;;;;;;;;;4993745;28;20136;-71
2022/05/12 00:28:46;;;;;;;10.35;2.45;;;;;;;;;;4997831;28;20033;-71
2022/05/12 00:31:11;;;;;;;4.93;3.13;;;;;;;;;;4996769;28;20382;-71
2022/05/12 00:33:37;;;;;;;7.87;2.83;;;;;;;;;;4994493;28;20026;-71
2022/05/12 00:36:02;;;;;;;11.68;2.95;;;;;;;;;;4996749;28;20726;-71
2022/05/12 00:38:27;;;;;;;5.97;2.88;;;;;;;;;;4995691;28;20029;-71
2022/05/12 00:40:52;;;;;;;11.60;3.10;;;;;;;;;;5000142;28;20041;-72
2022/05/12 00:43:36;;;;;;;10.97;2.50;;;;;;;;;;4998944;28;20297;-71
2022/05/12 00:46:02;;;;;;;12.02;2.85;;;;;;;;;;4997402;28;20274;-71
2022/05/12 00:48:27;;;;;;;6.47;2.10;;;;;;;;;;4996518;28;20097;-71
2022/05/12 00:50:52;;;;;;;5.93;2.45;;;;;;;;;;4991302;28;20476;-71
2022/05/12 00:53:17;;;;;;;8.30;2.30;;;;;;;;;;4995594;28;20312;-71
2022/05/12 00:55:44;;;;;;;8.47;2.77;;;;;;;;;;4993009;28;20028;-71
2022/05/12 00:58:12;;;;;;;9.25;2.95;;;;;;;;;;4993225;28;20793;-71
2022/05/12 01:00:38;;;;;;;10.98;2.55;;;;;;;;;;4999226;28;20034;-71
2022/05/12 01:03:07;;;;;;;6.78;3.10;;;;;;;;;;4999796;28;20481;-71
2022/05/12 01:05:32;;;;;;;10.18;3.33;;;;;;;;;;4995274;28;20739;-71
2022/05/12 01:07:58;;;;;;;10.87;2.70;;;;;;;;;;4997065;28;20030;-71
2022/05/12 01:10:24;;;;;;;4.80;2.65;;;;;;;;;;4998367;28;20282;-71
2022/05/12 01:12:50;;;;;;;8.32;3.10;;;;;;;;;;4994837;28;20030;-71
2022/05/12 01:15:17;;;;;;;4.63;2.88;;;;;;;;;;4997949;28;20025;-71
2022/05/12 01:17:42;;;;;;;11.15;3.65;;;;;;;;;;4995104;28;20158;-71
2022/05/12 01:20:08;;;;;;;10.23;3.45;;;;;;;;;;4996151;28;20101;-71
2022/05/12 01:22:53;;;;;;;14.82;3.05;;;;;;;;;;4991385;28;20030;-71
2022/05/12 01:25:20;;;;;;;8.88;2.88;;;;;;;;;;4990715;28;20030;-71
2022/05/12 01:27:46;;;;;;;5.53;3.20;;;;;;;;;;4995705;28;20431;-71
2022/05/12 01:30:13;;;;;;;9.25;3.00;;;;;;;;;;4994774;28;20057;-71
2022/05/12 01:32:38;;;;;;;10.55;3.40;;;;;;;;;;4997594;28;20028;-71
2022/05/12 01:35:04;;;;;;;10.48;3.35;;;;;;;;;;4995180;28;20313;-71
2022/05/12 01:37:30;;;;;;;9.95;3.45;;;;;;;;;;4995082;28;20025;-71
2022/05/12 01:39:55;;;;;;;12.95;2.92;;;;;;;;;;4996255;28;20022;-71
2022/05/12 01:42:20;;;;;;;12.23;3.00;;;;;;;;;;4973020;28;20033;-71
2022/05/12 01:44:45;;;;;;;8.40;3.22;;;;;;;;;;4974264;28;20480;-71
2022/05/12 01:47:11;;;;;;;11.68;3.00;;;;;;;;;;4990820;28;20109;-71
2022/05/12 01:49:37;;;;;;;11.48;3.00;;;;;;;;;;4993500;28;20033;-71
2022/05/12 01:52:03;;;;;;;7.10;2.60;;;;;;;;;;4994121;28;20284;-71
2022/05/12 01:54:29;;;;;;;13.88;2.55;;;;;;;;;;4994119;28;20018;-71
2022/05/12 01:56:54;;;;;;;5.28;2.60;;;;;;;;;;5004956;28;20085;-71
2022/05/12 01:59:19;;;;;;;9.07;3.10;;;;;;;;;;5001356;28;20064;-70
2022/05/12 02:01:45;;;;;;;6.53;3.08;;;;;;;;;;5001340;28;20758;-71
2022/05/12 02:04:10;;;;;;;7.22;2.83;;;;;;;;;;5006320;28;20021;-71
2022/05/12 02:06:35;;;;;;;6.93;3.58;;;;;;;;;;5000186;28;20350;-71
2022/05/12 02:09:00;;;;;;;10.38;3.08;;;;;;;;;;5000756;28;20034;-71
2022/05/12 02:11:26;;;;;;;7.30;3.00;;;;;;;;;;5002197;28;20010;-71
2022/05/12 02:13:51;;;;;;;14.85;4.13;;;;;;;;;;4999459;28;20777;-71
2022/05/12 02:16:16;;;;;;;11.03;3.77;;;;;;;;;;4997457;28;20029;-70
2022/05/12 02:18:43;;;;;;;7.05;3.20;;;;;;;;;;4995516;28;20325;-71
2022/05/12 02:21:08;;;;;;;7.25;3.25;;;;;;;;;;4998693;28;20492;-71
2022/05/12 02:23:33;;;;;;;8.82;3.20;;;;;;;;;;4997730;28;20034;-71
2022/05/12 02:25:58;;;;;;;9.93;3.50;;;;;;;;;;5001452;28;20030;-71
2022/05/12 02:28:23;;;;;;;9.13;3.50;;;;;;;;;;5000102;28;20115;-70
2022/05/12 02:30:49;;;;;;;7.07;3.22;;;;;;;;;;5001181;28;20018;-71
2022/05/12 02:33:14;;;;;;;11.05;3.50;;;;;;;;;;4997869;28;20105;-70
2022/05/12 02:35:39;;;;;;;7.83;3.93;;;;;;;;;;5001224;28;20029;-70
2022/05/12 02:38:05;;;;;;;11.40;4.03;;;;;;;;;;5000868;28;20373;-71
2022/05/12 02:40:31;;;;;;;8.07;3.47;;;;;;;;;;4999003;28;20038;-70
2022/05/12 02:42:57;;;;;;;9.23;3.78;;;;;;;;;;4987018;28;20072;-70
2022/05/12 02:45:22;;;;;;;12.85;3.70;;;;;;;;;;5000877;28;20435;-70
2022/05/12 02:47:47;;;;;;;7.63;3.63;;;;;;;;;;4996384;28;20026;-70
2022/05/12 02:50:14;;;;;;;8.65;3.47;;;;;;;;;;4999179;28;20029;-70
2022/05/12 02:52:39;;;;;;;7.72;3.63;;;;;;;;;;4996100;28;20033;-70
2022/05/12 02:55:05;;;;;;;11.70;3.55;;;;;;;;;;4998251;28;22635;-70
2022/05/12 02:57:30;;;;;;;7.22;3.28;;;;;;;;;;4994650;28;20532;-70
2022/05/12 02:59:55;;;;;;;6.90;3.22;;;;;;;;;;4993055;28;20026;-70
2022/05/12 03:02:20;;;;;;;9.07;3.47;;;;;;;;;;4994205;28;20040;-70
2022/05/12 03:04:46;;;;;;;5.80;3.45;;;;;;;;;;4996673;28;20112;-70
2022/05/12 03:07:11;;;;;;;8.13;3.58;;;;;;;;;;4978003;28;20373;-70
2022/05/12 03:09:36;;;;;;;7.00;3.63;;;;;;;;;;4996904;28;20104;-70
2022/05/12 03:12:02;;;;;;;5.47;2.97;;;;;;;;;;4996331;28;20378;-70
2022/05/12 03:14:27;;;;;;;8.65;3.58;;;;;;;;;;4990066;28;20084;-70
2022/05/12 03:16:53;;;;;;;8.50;2.92;;;;;;;;;;4972911;28;20052;-70
2022/05/12 03:19:18;;;;;;;12.75;3.35;;;;;;;;;;4992443;28;20769;-70
2022/05/12 03:21:43;;;;;;;9.55;3.17;;;;;;;;;;4991446;28;20034;-70
2022/05/12 03:24:09;;;;;;;7.63;2.80;;;;;;;;;;4994927;28;20492;-70
2022/05/12 03:26:34;;;;;;;9.05;3.50;;;;;;;;;;4993181;28;20067;-70
2022/05/12 03:28:59;;;;;;;9.60;3.23;;;;;;;;;;4993620;28;20060;-70
2022/05/12 03:31:24;;;;;;;5.20;3.10;;;;;;;;;;4990525;28;20345;-70
2022/05/12 03:33:49;;;;;;;11.13;3.00;;;;;;;;;;4988481;28;20864;-70
2022/05/12 03:36:15;;;;;;;8.73;2.93;;;;;;;;;;4992077;28;20310;-70
2022/05/12 03:38:41;;;;;;;6.80;3.25;;;;;;;;;;4973552;28;20722;-70
2022/05/12 03:41:06;;;;;;;8.60;3.38;;;;;;;;;;4992450;28;20091;-70
2022/05/12 03:46:15;;;;;;;7.88;3.05;;;;;;;;;;4989776;28;20540;-70
2022/05/12 03:48:40;;;;;;;13.63;3.90;;;;;;;;;;4990175;28;20030;-70
2022/05/12 03:51:06;;;;;;;11.27;3.70;;;;;;;;;;4993176;28;20694;-70
2022/05/12 03:53:33;;;;;;;9.52;3.42;;;;;;;;;;4997814;28;20029;-70
2022/05/12 03:55:58;;;;;;;10.85;2.97;;;;;;;;;;4995402;28;20026;-69
2022/05/12 03:58:24;;;;;;;12.52;3.45;;;;;;;;;;4992333;28;20029;-76
2022/05/12 04:00:50;;;;;;;12.65;4.18;;;;;;;;;;4989711;28;21657;-70
2022/05/12 04:03:15;;;;;;;27.02;4.25;;;;;;;;;;4992172;28;20031;-71
2022/05/12 04:05:40;;;;;;;13.73;4.15;;;;;;;;;;4992279;28;20389;-69
2022/05/12 04:08:05;;;;;;;14.95;4.13;;;;;;;;;;4995937;28;20072;-70
2022/05/12 04:10:32;;;;;;;15.10;4.50;;;;;;;;;;4993360;28;20787;-70
2022/05/12 04:12:57;;;;;;;12.00;4.05;;;;;;;;;;4994760;28;20025;-70
2022/05/12 04:15:23;;;;;;;16.15;4.55;;;;;;;;;;4995167;28;20435;-71
2022/05/12 04:17:54;;;;;;;16.38;4.07;;;;;;;;;;4978147;28;20137;-70
2022/05/12 04:20:19;;;;;;;17.48;4.72;;;;;;;;;;4977554;28;20117;-70
2022/05/12 04:22:44;;;;;;;12.70;5.32;;;;;;;;;;4991263;28;20073;-70
2022/05/12 04:25:10;;;;;;;16.38;4.78;;;;;;;;;;4996582;28;20044;-70
2022/05/12 04:27:38;;;;;;;7.47;3.85;;;;;;;;;;4993270;28;20663;-70
2022/05/12 04:30:04;;;;;;;14.45;4.35;;;;;;;;;;4994434;28;20063;-70
2022/05/12 04:32:30;;;;;;;17.50;4.43;;;;;;;;;;4992372;28;20109;-70
2022/05/12 04:35:12;;;;;;;22.05;4.95;;;;;;;;;;4978381;28;20080;-70
2022/05/12 04:37:38;;;;;;;17.52;5.57;;;;;;;;;;4975731;28;20069;-70
2022/05/12 04:40:23;;;;;;;18.55;6.53;;;;;;;;;;4996700;28;20033;-74
2022/05/12 04:42:49;;;;;;;21.15;7.05;;;;;;;;;;4999251;28;20065;-72
2022/05/12 04:45:15;;;;;;;19.05;6.82;;;;;;;;;;4979996;28;20049;-76
2022/05/12 04:47:40;;;;;;;13.60;5.93;;;;;;;;;;4976688;28;20026;-72
2022/05/12 04:50:07;;;;;;;32.05;8.85;;;;;;;;;;4994580;28;20026;-69
2022/05/12 04:52:32;;;;;;;17.80;8.07;;;;;;;;;;4998248;28;20037;-71
2022/05/12 04:54:57;;;;;;;19.58;6.80;;;;;;;;;;4999172;28;20022;-74
2022/05/12 04:57:22;;;;;;;31.67;7.93;;;;;;;;;;5000796;28;20413;-70
2022/05/12 04:59:49;;;;;;;25.98;8.27;;;;;;;;;;5004974;28;20282;-70
2022/05/12 05:02:14;;;;;;;27.92;9.02;;;;;;;;;;5001568;28;20026;-71
2022/05/12 05:04:39;;;;;;;32.45;8.85;;;;;;;;;;5004861;28;20033;-70
2022/05/12 05:07:06;;;;;;;25.30;8.77;;;;;;;;;;5005675;28;20072;-71
2022/05/12 05:09:31;;;;;;;38.38;9.35;;;;;;;;;;5003504;28;20018;-71
2022/05/12 05:11:56;;;;;;;31.20;9.60;;;;;;;;;;5007967;28;20070;-68
2022/05/12 05:14:22;;;;;;;30.23;10.50;;;;;;;;;;5003247;28;20872;-69
2022/05/12 05:16:47;;;;;;;34.38;11.38;;;;;;;;;;4993496;28;20363;-72
2022/05/12 05:19:12;;;;;;;41.45;11.20;;;;;;;;;;4999363;28;20349;-70
2022/05/12 05:21:37;;;;;;;40.95;11.35;;;;;;;;;;5000630;28;20385;-69
2022/05/12 05:24:03;;;;;;;39.60;11.68;;;;;;;;;;5005875;28;20499;-71
2022/05/12 05:26:28;;;;;;;34.67;11.80;;;;;;;;;;4997404;28;20030;-69
2022/05/12 05:28:54;;;;;;;37.30;12.63;;;;;;;;;;5006437;28;20112;-69
2022/05/12 05:31:19;;;;;;;37.30;12.10;;;;;;;;;;5004775;28;20318;-70
2022/05/12 05:33:44;;;;;;;36.55;12.13;;;;;;;;;;5004481;28;20022;-70
2022/05/12 05:36:09;;;;;;;38.05;12.27;;;;;;;;;;5007238;28;20013;-70
2022/05/12 05:38:34;;;;;;;32.67;13.60;;;;;;;;;;5001246;28;20373;-69
2022/05/12 05:40:59;;;;;;;32.30;12.82;;;;;;;;;;5015139;28;20030;-71
2022/05/12 05:43:26;;;;;;;44.53;14.02;;;;;;;;;;5003065;28;20029;-70
2022/05/12 05:45:51;;;;;;;51.80;16.30;;;;;;;;;;5014362;28;20060;-70
2022/05/12 05:48:16;;;;;;;48.88;14.80;;;;;;;;;;5006686;28;20108;-69
2022/05/12 05:53:28;;;;;;;48.72;13.68;;;;;;;;;;5001370;28;20337;-70
2022/05/12 05:55:55;;;;;;;36.92;14.18;;;;;;;;;;5003548;28;20367;-70
2022/05/12 05:58:20;;;;;;;55.65;15.07;;;;;;;;;;4995412;28;20033;-70
2022/05/12 06:00:46;;;;;;;46.00;15.85;;;;;;;;;;4999455;28;20030;-71
2022/05/12 06:03:11;;;;;;;55.72;16.52;;;;;;;;;;4997126;28;20500;-71
2022/05/12 06:05:36;;;;;;;46.42;14.73;;;;;;;;;;5001457;28;20044;-70
2022/05/12 06:08:01;;;;;;;47.08;16.08;;;;;;;;;;4999126;28;20037;-71
2022/05/12 06:10:27;;;;;;;38.30;13.75;;;;;;;;;;5001727;28;20023;-71
2022/05/12 06:12:53;;;;;;;41.70;14.15;;;;;;;;;;4997309;28;20033;-70
2022/05/12 06:15:18;;;;;;;45.70;15.80;;;;;;;;;;5001290;28;20396;-71
2022/05/12 06:17:43;;;;;;;36.17;14.73;;;;;;;;;;5000717;28;20041;-70
2022/05/12 06:20:10;;;;;;;34.58;13.90;;;;;;;;;;5004897;28;20030;-71
2022/05/12 06:22:36;;;;;;;46.00;14.73;;;;;;;;;;5001309;28;20461;-70
2022/05/12 06:25:03;;;;;;;36.45;12.80;;;;;;;;;;5004565;28;20045;-70
2022/05/12 06:27:28;;;;;;;40.78;12.55;;;;;;;;;;4998394;28;20064;-70
2022/05/12 06:29:56;;;;;;;32.33;13.23;;;;;;;;;;5000743;28;20038;-69
2022/05/12 06:32:21;;;;;;;47.42;16.00;;;;;;;;;;4996067;28;20271;-71
2022/05/12 06:34:46;;;;;;;35.83;13.48;;;;;;;;;;5000624;28;20361;-70
2022/05/12 06:37:12;;;;;;;44.67;16.00;;;;;;;;;;5000075;28;20360;-67
2022/05/12 06:39:38;;;;;;;35.90;13.52;;;;;;;;;;5006873;28;20605;-70
2022/05/12 06:42:03;;;;;;;42.75;14.23;;;;;;;;;;5002522;28;20030;-71
2022/05/12 06:44:29;;;;;;;34.83;14.38;;;;;;;;;;4997579;28;20025;-71
2022/05/12 06:46:54;;;;;;;33.08;12.25;;;;;;;;;;4998801;28;20443;-70
2022/05/12 06:49:20;;;;;;;27.35;11.98;;;;;;;;;;4996747;28;20018;-70
2022/05/12 06:51:45;;;;;;;45.05;13.77;;;;;;;;;;4999558;28;20479;-71
2022/05/12 06:54:11;;;;;;;29.02;12.98;;;;;;;;;;5010063;28;20116;-70
2022/05/12 06:56:36;;;;;;;29.63;10.68;;;;;;;;;;4999813;28;20065;-71
2022/05/12 06:59:02;;;;;;;32.33;11.53;;;;;;;;;;5003067;28;20025;-76
2022/05/12 07:01:27;;;;;;;31.00;11.95;;;;;;;;;;5003402;28;20137;-75
2022/05/12 07:03:53;;;;;;;32.80;11.02;;;;;;;;;;4998570;28;20057;-77
2022/05/12 07:06:18;;;;;;;29.88;11.48;;;;;;;;;;5009585;28;20589;-76
2022/05/12 07:08:43;;;;;;;21.38;9.52;;;;;;;;;;5011325;28;20021;-77
2022/05/12 07:11:09;;;;;;;29.07;11.57;;;;;;;;;;5002675;28;20553;-75
2022/05/12 07:13:35;;;;;;;25.02;10.13;;;;;;;;;;5006737;28;20469;-76
2022/05/12 07:16:00;;;;;;;26.60;10.45;;;;;;;;;;5012621;28;20602;-77
2022/05/12 07:18:26;;;;;;;23.42;9.65;;;;;;;;;;5009650;28;20072;-78
2022/05/12 07:26:40;;;;;;;20.50;8.73;;;;;;;;;;5010968;28;20327;-77
2022/05/12 07:29:24;;;;;;;21.80;9.05;;;;;;;;;;4995425;28;20030;-77
2022/05/12 07:31:50;;;;;;;26.63;9.75;;;;;;;;;;4992576;28;20081;-76
2022/05/12 07:34:15;;;;;;;20.03;8.50;;;;;;;;;;4999079;28;20026;-72
2022/05/12 07:36:43;;;;;;;22.52;8.15;;;;;;;;;;4995878;28;20346;-77
2022/05/12 07:39:11;;;;;;;17.60;7.00;;;;;;;;;;4999246;28;20125;-77
2022/05/12 07:41:38;;;;;;;17.15;7.57;;;;;;;;;;4999761;28;20061;-76
2022/05/12 07:44:04;;;;;;;16.52;6.68;;;;;;;;;;4995594;28;20032;-77
2022/05/12 07:46:30;;;;;;;10.00;5.78;;;;;;;;;;4998805;28;20065;-77
2022/05/12 07:48:55;;;;;;;18.77;7.28;;;;;;;;;;4994215;28;20049;-75
2022/05/12 07:51:21;;;;;;;14.75;6.60;;;;;;;;;;5002991;28;20555;-75
2022/05/12 07:53:47;;;;;;;14.18;6.90;;;;;;;;;;4991820;28;20060;-76
2022/05/12 07:56:13;;;;;;;18.95;8.13;;;;;;;;;;5001006;28;20022;-75
2022/05/12 07:58:38;;;;;;;17.42;8.32;;;;;;;;;;4994840;28;20030;-76
2022/05/12 08:01:04;;;;;;;20.13;8.13;;;;;;;;;;4995500;28;20061;-76
2022/05/12 08:03:29;;;;;;;15.90;7.10;;;;;;;;;;4995756;28;20380;-77
2022/05/12 08:05:54;;;;;;;17.20;8.07;;;;;;;;;;4996788;28;20061;-77
2022/05/12 08:08:19;;;;;;;20.93;8.43;;;;;;;;;;4995188;28;20285;-76
2022/05/12 08:10:45;;;;;;;19.85;9.55;;;;;;;;;;5004823;28;20077;-74
2022/05/12 08:13:16;;;;;;;13.57;8.40;;;;;;;;;;4999957;28;20064;-75
2022/05/12 08:15:41;;;;;;;19.50;8.70;;;;;;;;;;4995422;28;20033;-76
2022/05/12 08:18:08;;;;;;;21.02;9.77;;;;;;;;;;5013315;28;20029;-74
2022/05/12 08:20:33;;;;;;;14.10;8.00;;;;;;;;;;5001354;28;20030;-75
2022/05/12 08:22:58;;;;;;;16.27;8.43;;;;;;;;;;4999966;28;20526;-76
2022/05/12 08:25:23;;;;;;;16.95;9.13;;;;;;;;;;5000304;28;20433;-74
2022/05/12 08:27:49;;;;;;;13.98;8.45;;;;;;;;;;5001188;28;20041;-76
2022/05/12 08:30:16;;;;;;;19.48;8.93;;;;;;;;;;5005132;28;20105;-75
2022/05/12 08:32:41;;;;;;;23.45;9.18;;;;;;;;;;5017937;28;20099;-75
2022/05/12 08:35:07;;;;;;;17.92;8.15;;;;;;;;;;5001703;28;20057;-76
2022/05/12 08:37:33;;;;;;;13.55;7.75;;;;;;;;;;5005736;28;20374;-76
2022/05/12 08:39:58;;;;;;;13.60;7.53;;;;;;;;;;5003300;28;20455;-76
2022/05/12 08:42:27;;;;;;;14.68;6.75;;;;;;;;;;4998523;28;20294;-75
2022/05/12 08:44:54;;;;;;;11.75;6.50;;;;;;;;;;5002250;28;20041;-76
2022/05/12 08:47:25;;;;;;;11.10;6.15;;;;;;;;;;5002185;28;20026;-76
2022/05/12 08:49:51;;;;;;;10.32;5.80;;;;;;;;;;4998244;28;20018;-76
2022/05/12 08:52:18;;;;;;;10.52;6.50;;;;;;;;;;5006323;28;20029;-75
2022/05/12 08:54:49;;;;;;;11.77;5.78;;;;;;;;;;5001322;28;20033;-75
2022/05/12 08:57:24;;;;;;;13.70;5.55;;;;;;;;;;5002078;28;20548;-73
2022/05/12 08:59:49;;;;;;;12.80;5.55;;;;;;;;;;5002905;28;20080;-73
2022/05/12 09:02:23;;;;;;;10.95;5.43;;;;;;;;;;5005779;28;20025;-71
2022/05/12 09:04:54;;;;;;;12.15;5.60;;;;;;;;;;4995384;28;20026;-72
2022/05/12 09:07:27;;;;;;;7.30;4.75;;;;;;;;;;4996358;28;20022;-75
2022/05/12 09:09:55;;;;;;;11.45;5.50;;;;;;;;;;5002635;28;20026;-74
2022/05/12 09:12:20;;;;;;;5.97;5.10;;;;;;;;;;4994261;28;20029;-74
2022/05/12 09:14:49;;;;;;;9.82;4.63;;;;;;;;;;5004195;28;20471;-74
2022/05/12 09:17:24;;;;;;;10.57;4.93;;;;;;;;;;5002377;28;20238;-76
2022/05/12 09:19:49;;;;;;;10.80;5.03;;;;;;;;;;5002549;28;20428;-71
2022/05/12 09:22:22;;;;;;;7.40;4.10;;;;;;;;;;4993978;28;20244;-73
2022/05/12 09:24:47;;;;;;;6.53;4.47;;;;;;;;;;5003742;28;20287;-73
2022/05/12 09:27:13;;;;;;;5.50;3.93;;;;;;;;;;5002219;28;20030;-72
2022/05/12 09:29:56;;;;;;;7.50;4.30;;;;;;;;;;5000713;28;20294;-74
2022/05/12 09:32:26;;;;;;;8.77;4.30;;;;;;;;;;4994927;28;20375;-73
2022/05/12 09:35:04;;;;;;;9.55;4.00;;;;;;;;;;5006550;28;20030;-74
2022/05/12 09:37:30;;;;;;;5.75;3.40;;;;;;;;;;5002817;28;20547;-74
2022/05/12 09:39:56;;;;;;;7.30;3.40;;;;;;;;;;5006792;28;20044;-75
2022/05/12 09:42:28;;;;;;;6.65;2.67;;;;;;;;;;5013472;28;20411;-75
2022/05/12 09:44:55;;;;;;;8.07;2.78;;;;;;;;;;5002245;28;20029;-75
2022/05/12 09:47:20;;;;;;;4.38;2.45;;;;;;;;;;4996597;28;22137;-74
2022/05/12 09:49:46;;;;;;;6.82;2.85;;;;;;;;;;5000832;28;20304;-75
2022/05/12 09:52:31;;;;;;;5.55;2.78;;;;;;;;;;4999450;28;20524;-75
2022/05/12 09:55:08;;;;;;;7.18;2.85;;;;;;;;;;4996423;28;20030;-73
2022/05/12 09:57:35;;;;;;;5.25;2.30;;;;;;;;;;5001199;28;20037;-74
2022/05/12 10:00:02;;;;;;;8.88;3.28;;;;;;;;;;5004226;28;20515;-74
2022/05/12 10:08:24;;;;;;;7.18;1.63;;;;;;;;;;4987899;28;20416;-73
2022/05/12 10:10:53;;;;;;;5.40;1.50;;;;;;;;;;4999416;28;20373;-75
2022/05/12 10:13:21;;;;;;;2.28;1.40;;;;;;;;;;5002438;28;20079;-76
2022/05/12 10:15:46;;;;;;;5.22;2.42;;;;;;;;;;4986043;28;20442;-74
2022/05/12 10:18:30;;;;;;;6.00;1.83;;;;;;;;;;5007316;28;20484;-75
2022/05/12 10:20:59;;;;;;;3.08;1.77;;;;;;;;;;5004981;28;20136;-73
2022/05/12 10:23:51;;;;;;;4.70;1.85;;;;;;;;;;4996396;28;20021;-75
2022/05/12 10:26:20;;;;;;;3.40;1.50;;;;;;;;;;4969428;28;20111;-75
2022/05/12 10:28:52;;;;;;;4.68;1.63;;;;;;;;;;4997537;28;20480;-76
2022/05/12 10:31:43;;;;;;;6.75;1.80;;;;;;;;;;4993777;28;20026;-73
2022/05/12 10:34:17;;;;;;;4.75;2.35;;;;;;;;;;4966621;28;20038;-74
2022/05/12 10:37:01;;;;;;;3.17;1.70;;;;;;;;;;5008990;28;20028;-75
2022/05/12 10:39:32;;;;;;;3.55;1.85;;;;;;;;;;4995904;28;20473;-74
2022/05/12 10:42:15;;;;;;;6.05;1.80;;;;;;;;;;5005710;28;20347;-75
2022/05/12 10:44:53;;;;;;;13.13;2.15;;;;;;;;;;5000881;28;20053;-73
2022/05/12 10:47:21;;;;;;;5.00;1.98;;;;;;;;;;4992638;28;20029;-75
2022/05/12 10:49:55;;;;;;;3.50;1.90;;;;;;;;;;4995539;28;20026;-75
2022/05/12 10:52:46;;;;;;;5.45;2.10;;;;;;;;;;5001182;28;20112;-74
2022/05/12 10:55:30;;;;;;;4.13;2.00;;;;;;;;;;4996552;28;20018;-75
2022/05/12 10:57:55;;;;;;;3.85;1.60;;;;;;;;;;5005573;28;20088;-75
2022/05/12 11:00:23;;;;;;;5.07;1.70;;;;;;;;;;5004608;28;20026;-75
2022/05/12 11:02:51;;;;;;;4.25;1.77;;;;;;;;;;5005984;28;20022;-74
2022/05/12 11:05:32;;;;;;;3.20;1.35;;;;;;;;;;5006939;28;20284;-75
2022/05/12 11:08:03;;;;;;;5.68;1.95;;;;;;;;;;4999191;28;20141;-75
2022/05/12 11:10:34;;;;;;;4.20;1.70;;;;;;;;;;5002808;28;20080;-74
2022/05/12 11:13:01;;;;;;;4.05;2.30;;;;;;;;;;4994314;28;20026;-74
2022/05/12 11:15:30;;;;;;;2.58;1.90;;;;;;;;;;5009477;28;20409;-74
2022/05/12 11:17:55;;;;;;;3.65;1.75;;;;;;;;;;4981597;28;20471;-73
2022/05/12 11:20:32;;;;;;;6.50;1.77;;;;;;;;;;5006201;28;20053;-75
2022/05/12 11:23:18;;;;;;;5.00;1.90;;;;;;;;;;5012159;28;20033;-75
2022/05/12 11:25:43;;;;;;;5.60;2.15;;;;;;;;;;4999799;28;20022;-74
2022/05/12 11:31:17;;;;;;;2.75;1.85;;;;;;;;;;4997355;28;20025;-73
2022/05/12 11:33:45;;;;;;;4.50;1.63;;;;;;;;;;4998820;28;20030;-72
2022/05/12 11:36:10;;;;;;;15.93;9.27;;;;;;;;;;4999801;28;20030;-73
2022/05/12 11:38:42;;;;;;;7.55;4.05;;;;;;;;;;5003744;28;20022;-73
2022/05/12 11:41:20;;;;;;;4.90;2.10;;;;;;;;;;5005302;28;20033;-73
2022/05/12 11:46:31;;;;;;;4.20;2.05;;;;;;;;;;5007565;28;20032;-74
2022/05/12 11:49:14;;;;;;;5.30;2.78;;;;;;;;;;5008777;28;20037;-76
2022/05/12 11:51:40;;;;;;;;;;;;;;;;;;5013475;28;20033;-74
2022/05/12 11:54:10;;;;;;;4.63;1.83;;;;;;;;;;5003499;28;19910;-76
2022/05/12 11:56:49;;;;;;;2.25;1.42;;;;;;;;;;5006055;28;20492;-74
2022/05/12 11:59:24;;;;;;;5.80;2.00;;;;;;;;;;5003770;28;20200;-73
2022/05/12 12:01:51;;;;;;;4.20;1.70;;;;;;;;;;5005149;28;20029;-76
2022/05/12 12:04:36;;;;;;;5.72;3.65;;;;;;;;;;5004716;28;20392;-74
2022/05/12 12:07:02;;;;;;;4.68;1.90;;;;;;;;;;5008124;28;20260;-74
2022/05/12 12:09:29;;;;;;;5.22;2.20;;;;;;;;;;5013516;28;20021;-74
2022/05/12 12:11:54;;;;;;;3.47;1.58;;;;;;;;;;5005306;28;20045;-74
2022/05/12 12:14:38;;;;;;;5.57;2.88;;;;;;;;;;5006564;28;20026;-75
2022/05/12 12:17:05;;;;;;;2.33;1.80;;;;;;;;;;5001979;28;20060;-74
2022/05/12 12:19:41;;;;;;;3.50;1.90;;;;;;;;;;5003456;28;20030;-74
2022/05/12 12:22:25;;;;;;;2.50;1.90;;;;;;;;;;5007892;28;20038;-73
2022/05/12 12:24:50;;;;;;;;;;;;;;;;;;4989373;28;20022;-74
2022/05/12 12:27:18;;;;;;;6.25;2.30;;;;;;;;;;5007276;28;19929;-74
2022/05/12 12:29:45;;;;;;;5.43;2.15;;;;;;;;;;5013947;28;20017;-74
2022/05/12 12:32:27;;;;;;;4.53;2.03;;;;;;;;;;5008765;28;20054;-75
2022/05/12 12:34:53;;;;;;;4.55;1.85;;;;;;;;;;5003213;28;20096;-75
2022/05/12 12:37:37;;;;;;;5.72;1.88;;;;;;;;;;5012037;28;20483;-74
2022/05/12 12:40:23;;;;;;;2.88;1.83;;;;;;;;;;5006725;28;20117;-75
2022/05/12 12:42:49;;;;;;;4.63;1.80;;;;;;;;;;5003750;28;20053;-73
2022/05/12 12:45:16;;;;;;;4.53;1.60;;;;;;;;;;5004934;28;20022;-74
2022/05/12 12:47:43;;;;;;;7.28;2.10;;;;;;;;;;5000528;28;20107;-73
2022/05/12 12:50:23;;;;;;;5.60;1.70;;;;;;;;;;4998563;28;20026;-74
2022/05/12 12:52:50;;;;;;;6.57;1.90;;;;;;;;;;5001710;28;20351;-74
2022/05/12 12:58:14;;;;;;;3.47;1.97;;;;;;;;;;5007312;28;20120;-75
2022/05/12 13:00:39;;;;;;;2.50;1.38;;;;;;;;;;4998535;28;20279;-74
2022/05/12 13:03:26;;;;;;;4.50;1.90;;;;;;;;;;4997926;28;20077;-74
2022/05/12 13:06:05;;;;;;;3.65;1.88;;;;;;;;;;5003573;28;20630;-74
2022/05/12 13:08:31;;;;;;;2.05;1.85;;;;;;;;;;4994726;28;20037;-72
2022/05/12 13:10:58;;;;;;;4.18;1.98;;;;;;;;;;5006123;28;20026;-73
2022/05/12 13:13:24;;;;;;;5.28;2.65;;;;;;;;;;5003132;28;20018;-74
2022/05/12 13:15:54;;;;;;;4.72;1.92;;;;;;;;;;4980458;28;20048;-75
2022/05/12 13:18:23;;;;;;;5.22;2.83;;;;;;;;;;4999365;28;20454;-75
2022/05/12 13:20:49;;;;;;;3.97;2.22;;;;;;;;;;5002580;28;20041;-74
2022/05/12 13:23:17;;;;;;;4.40;2.60;;;;;;;;;;5006240;28;20034;-73
2022/05/12 13:25:43;;;;;;;9.05;2.50;;;;;;;;;;5004620;28;20088;-75
2022/05/12 13:28:12;;;;;;;3.63;2.22;;;;;;;;;;5000328;28;20018;-75
2022/05/12 13:30:37;;;;;;;5.78;2.00;;;;;;;;;;5002901;28;20017;-75
2022/05/12 13:33:10;;;;;;;4.28;1.98;;;;;;;;;;4998235;28;20443;-73
2022/05/12 13:35:36;;;;;;;3.17;2.10;;;;;;;;;;4997196;28;20037;-74
2022/05/12 13:38:10;;;;;;;5.55;3.00;;;;;;;;;;5013021;28;20611;-75
2022/05/12 13:40:54;;;;;;;4.15;1.90;;;;;;;;;;4994438;28;20106;-75
2022/05/12 13:43:19;;;;;;;;;;;;;;;;;;5000942;28;20087;-73
2022/05/12 13:45:47;;;;;;;5.32;3.13;;;;;;;;;;4998787;28;19914;-74
2022/05/12 13:48:22;;;;;;;3.47;2.60;;;;;;;;;;5000092;28;20118;-75
2022/05/12 13:50:49;;;;;;;3.72;2.30;;;;;;;;;;4996529;28;20029;-69
2022/05/12 13:53:23;;;;;;;4.10;1.70;;;;;;;;;;5005279;28;20621;-70
2022/05/12 13:56:04;;;;;;;3.92;2.05;;;;;;;;;;4999805;28;20021;-70
2022/05/12 13:58:29;;;;;;;3.15;1.90;;;;;;;;;;5005385;28;20434;-70
2022/05/12 14:00:54;;;;;;;20.33;3.38;;;;;;;;;;4999609;28;20041;-70
2022/05/12 14:03:24;;;;;;;9.17;2.17;;;;;;;;;;5001362;28;20104;-70
2022/05/12 14:05:53;;;;;;;30.92;4.30;;;;;;;;;;4998438;28;20275;-70
2022/05/12 14:08:21;;;;;;;10.80;2.60;;;;;;;;;;4999616;28;20547;-70
2022/05/12 14:10:48;;;;;;;14.68;2.45;;;;;;;;;;4998342;28;20018;-70
2022/05/12 14:21:35;;;;;;;3.80;2.00;;;;;;;;;;5000279;28;20095;-69
2022/05/12 14:24:00;;;;;;;16.08;2.30;;;;;;;;;;5005628;28;20041;-70
2022/05/12 14:26:25;;;;;;;2.40;1.87;;;;;;;;;;5001575;28;20396;-69
2022/05/12 14:28:50;;;;;;;3.35;2.10;;;;;;;;;;5004112;28;20080;-69
2022/05/12 14:31:17;;;;;;;4.67;2.90;;;;;;;;;;5002717;28;20243;-70
2022/05/12 14:33:42;;;;;;;45.97;5.53;;;;;;;;;;5006620;28;20382;-68
2022/05/12 14:36:08;;;;;;;8.90;3.33;;;;;;;;;;4999279;28;20025;-67
2022/05/12 14:38:34;;;;;;;6.37;3.07;;;;;;;;;;4998010;28;20418;-68
2022/05/12 14:40:59;;;;;;;5.38;3.75;;;;;;;;;;4999958;28;20333;-67
2022/05/12 14:43:24;;;;;;;6.55;2.75;;;;;;;;;;5006579;28;20037;-67
2022/05/12 14:45:50;;;;;;;3.15;2.85;;;;;;;;;;4998638;28;20029;-70
2022/05/12 14:48:15;;;;;;;7.70;2.75;;;;;;;;;;4999827;28;20052;-67
2022/05/12 14:50:40;;;;;;;4.07;2.80;;;;;;;;;;4999692;28;20080;-69
2022/05/12 14:53:14;;;;;;;4.13;2.87;;;;;;;;;;4998386;28;20845;-69
2022/05/12 14:55:39;;;;;;;4.57;3.20;;;;;;;;;;5002704;28;20026;-71
2022/05/12 14:58:04;;;;;;;7.70;4.03;;;;;;;;;;5002964;28;20059;-70
2022/05/12 15:00:30;;;;;;;4.00;2.90;;;;;;;;;;4996616;28;20282;-70
2022/05/12 15:02:57;;;;;;;3.50;2.50;;;;;;;;;;5003163;28;20034;-70
2022/05/12 15:05:23;;;;;;;6.03;2.75;;;;;;;;;;5000720;28;20057;-70
2022/05/12 15:07:49;;;;;;;6.32;3.45;;;;;;;;;;4997956;28;20188;-70
2022/05/12 15:10:14;;;;;;;4.93;3.47;;;;;;;;;;4995538;28;20064;-70
2022/05/12 15:12:39;;;;;;;4.85;2.80;;;;;;;;;;4998621;28;20029;-70
2022/05/12 15:15:06;;;;;;;4.95;3.22;;;;;;;;;;4996764;28;20021;-70